Terminal Aerodrome Forecast
Issued by NWS Charleston, WV

Current Version | Previous Version | Text Only | Print | Product List | Glossary Off
Versions: 1 2 3 4 5 6 7 8 9 10 11 12 13 14 15 16 17 18 19 20 21 22 23 24 25 26

000
FTUS41 KRLX 231133
TAFBKW
TAF
KBKW 231133Z 2312/2412 23005KT 6SM -SHRA BKN100
     FM231700 25008KT P6SM SCT050 BKN100
     FM232100 26008KT P6SM VCTS BKN050CB=

USA.gov is the U.S. government's official web portal to all federal, state and local government web resources and services.